• Join FlightAware (Why Join?)
  • Login
  • US Flag 
03:12AM EDT


 

Airport Tracker/Info


-or-


 

Live Flight TrackerFlight Track Log ✈ TRS587 ✈ 28-Aug-2013 ✈ KMCO - KMDW

Flight Track Log - Related Links

Times and Time Zones

All times are in EDT time to prevent confusion due to time zone crossing. See the TRS587 flight status page for this flight to view local times or setup timezone preferences in your user account.

Time Position Orientation Groundspeed Altitude Reporting Facility
EDT Latitude Longitude Course Direction KTS MPH feet Rate Location/Type
10:26AM 28.4000 -81.3000 221° Southwest 167 192 800  Level Orlando TRACON
10:28AM 28.3333 -81.3667 221° Southwest 276 318 3,400 1,980 Climbing Orlando TRACON
10:29AM 28.3333 -81.4500 270° West 276 318 5,700 2,100 Climbing Orlando TRACON
10:31AM 28.4786 -81.5322 334° Northwest 277 319 10,600 1,740 Climbing Jacksonville Center
10:32AM 28.5750 -81.5475 352° North 307 353 11,800 1,440 Climbing Jacksonville Center
10:33AM 28.6753 -81.5697 349° North 347 399 13,500 1,680 Climbing Jacksonville Center
10:34AM 28.7797 -81.5897 350° North 370 426 15,200 1,680 Climbing Jacksonville Center
10:35AM 28.8864 -81.6144 349° North 377 434 16,900 1,680 Climbing Jacksonville Center
10:36AM 28.9972 -81.6367 350° North 391 450 18,600 1,620 Climbing Jacksonville Center
10:37AM 29.1103 -81.6592 350° North 396 456 20,200 1,440 Climbing Jacksonville Center
10:38AM 29.2253 -81.6814 350° North 411 473 21,500 1,440 Climbing Jacksonville Center
10:39AM 29.3614 -81.7108 349° North 432 497 23,100 1,440 Climbing Jacksonville Center
10:40AM 29.4825 -81.7378 349° North 444 511 24,400 1,320 Climbing Jacksonville Center
10:41AM 29.6100 -81.7628 350° North 450 518 25,800 1,200 Climbing Jacksonville Center
10:42AM 29.7336 -81.7875 350° North 450 518 26,800 1,020 Climbing Jacksonville Center
10:43AM 29.8611 -81.8147 350° North 450 518 27,900 1,200 Climbing Jacksonville Center
10:44AM 29.9867 -81.8422 349° North 450 518 29,200 1,260 Climbing Jacksonville Center
10:45AM 30.1122 -81.8769 347° North 456 525 30,500 1,140 Climbing Jacksonville Center
10:46AM 30.2317 -81.9261 340° North 450 518 31,500 1,200 Climbing Jacksonville Center
10:47AM 30.3508 -81.9756 340° North 455 524 32,900 1,080 Climbing Jacksonville Center
10:48AM 30.4722 -82.0250 341° North 455 524 33,700 1,020 Climbing Jacksonville Center
10:49AM 30.5917 -82.0817 338° Northwest 460 529 35,000 600 Climbing Jacksonville Center
10:50AM 30.7089 -82.1314 340° North 454 522 35,000  Level Jacksonville Center
10:51AM 30.8261 -82.1814 340° North 449 517 35,000  Level Jacksonville Center
10:52AM 30.9414 -82.2314 340° North 444 511 35,000  Level Jacksonville Center
10:53AM 31.0542 -82.2742 342° North 438 504 35,000  Level Jacksonville Center
10:54AM 31.1733 -82.3122 345° North 433 498 35,000  Level Jacksonville Center
10:55AM 31.2886 -82.3578 341° North 433 498 35,000  Level Jacksonville Center
10:56AM 31.4078 -82.3961 345° North 433 498 35,000  Level Jacksonville Center
10:58AM 31.6828 -82.4942 343° North 448 516 35,000  Level Atlanta Center
10:59AM 31.8022 -82.5361 343° North 443 510 35,000  Level Atlanta Center
11:00AM 31.9175 -82.5781 343° North 443 510 35,000  Level Atlanta Center
11:01AM 32.0347 -82.6203 343° North 443 510 35,000  Level Atlanta Center
11:02AM 32.1500 -82.6603 344° North 443 510 35,000  Level Atlanta Center
11:03AM 32.2675 -82.7025 343° North 443 510 35,000  Level Atlanta Center
11:04AM 32.3828 -82.7500 341° North 443 510 35,000  Level Atlanta Center
11:05AM 32.4981 -82.7903 344° North 443 510 35,000  Level Atlanta Center
11:06AM 32.6194 -82.8378 342° North 425 489 35,000  Level Atlanta Center
11:07AM 32.7347 -82.8783 344° North 425 489 35,000  Level Atlanta Center
11:08AM 32.8519 -82.9186 344° North 431 496 35,000  Level Atlanta Center
11:09AM 32.9692 -82.9642 342° North 436 502 35,000  Level Atlanta Center
11:10AM 33.0761 -83.0050 342° North 436 502 35,000  Level Atlanta Center
11:11AM 33.1953 -83.0508 342° North 443 510 35,000  Level Atlanta Center
11:12AM 33.3125 -83.0942 343° North 443 510 35,000  Level Atlanta Center
11:13AM 33.4339 -83.1353 344° North 443 510 35,000  Level Atlanta Center
11:14AM 33.5469 -83.1789 342° North 438 504 35,000  Level Atlanta Center
11:15AM 33.6664 -83.2253 342° North 443 510 35,000  Level Atlanta Center
11:16AM 33.7919 -83.2714 343° North 443 510 35,000  Level Atlanta Center
11:17AM 33.9089 -83.3153 343° North 437 503 35,000  Level Atlanta Center
11:18AM 34.0261 -83.3594 343° North 442 509 35,000  Level Atlanta Center
11:19AM 34.1411 -83.4039 342° North 442 509 35,000  Level Atlanta Center
11:20AM 34.2583 -83.4481 343° North 442 509 35,000  Level Atlanta Center
11:21AM 34.3733 -83.4928 342° North 437 503 35,000  Level Atlanta Center
11:22AM 34.4903 -83.5347 344° North 442 509 35,000  Level Atlanta Center
11:23AM 34.6053 -83.5794 342° North 436 502 35,000  Level Atlanta Center
11:24AM 34.7222 -83.6242 343° North 436 502 35,000  Level Atlanta Center
11:25AM 34.8372 -83.6692 342° North 436 502 35,000  Level Atlanta Center
11:26AM 34.9417 -83.7119 341° North 441 507 35,000  Level Atlanta Center
11:27AM 35.0586 -83.7572 342° North 441 507 35,000  Level Atlanta Center
11:28AM 35.1736 -83.8025 342° North 441 507 35,000  Level Atlanta Center
11:29AM 35.2883 -83.8453 343° North 441 507 35,000  Level Atlanta Center
11:30AM 35.4031 -83.8936 341° North 441 507 35,000  Level Atlanta Center
11:31AM 35.5158 -83.9367 343° North 436 502 35,000  Level Atlanta Center
11:32AM 35.6328 -83.9800 343° North 436 502 35,000  Level Atlanta Center
11:33AM 35.7475 -84.0286 341° North 436 502 35,000  Level Atlanta Center
11:34AM 35.8622 -84.0747 342° North 436 502 35,000  Level Atlanta Center
11:36AM 36.0686 -84.1556 342° North 439 505 35,000  Level Indianapolis Center
11:37AM 36.1847 -84.2017 342° North 439 505 35,000  Level Indianapolis Center
11:38AM 36.3011 -84.2483 342° North 441 507 35,000  Level Indianapolis Center
11:39AM 36.4172 -84.2961 342° North 441 507 35,000  Level Indianapolis Center
11:40AM 36.5347 -84.3436 342° North 440 506 35,000 480 Level Indianapolis Center
11:41AM 36.6697 -84.3981 342° North 436 502 36,000 480 Climbing Indianapolis Center
11:42AM 36.7850 -84.4442 342° North 434 499 36,000  Level Indianapolis Center
11:43AM 36.8997 -84.4925 341° North 434 499 36,000  Level Indianapolis Center
11:44AM 37.0158 -84.5403 342° North 439 505 36,000  Level Indianapolis Center
11:45AM 37.1325 -84.5878 342° North 436 502 36,000  Level Indianapolis Center
11:46AM 37.2481 -84.6361 342° North 435 501 36,000  Level Indianapolis Center
11:47AM 37.3631 -84.6825 342° North 432 497 36,000  Level Indianapolis Center
11:48AM 37.4764 -84.7303 342° North 427 491 36,000  Level Indianapolis Center
11:50AM 37.6075 -84.7861 341° North 424 488 36,000  Level Indianapolis Center
11:51AM 37.7203 -84.8328 342° North 424 488 36,000  Level Indianapolis Center
11:52AM 37.8336 -84.8806 342° North 427 491 36,000  Level Indianapolis Center
11:53AM 37.9475 -84.9275 342° North 429 494 36,000  Level Indianapolis Center
11:54AM 38.0611 -84.9758 341° North 429 494 36,000  Level Indianapolis Center
11:55AM 38.1772 -85.0222 343° North 435 501 36,000  Level Indianapolis Center
11:56AM 38.2889 -85.0711 341° North 427 491 36,000  Level Indianapolis Center
11:57AM 38.4219 -85.1281 341° North 429 494 36,000  Level Indianapolis Center
11:58AM 38.5344 -85.1772 341° North 428 493 36,000  Level Indianapolis Center
11:59AM 38.6383 -85.2203 342° North 430 495 36,000  Level Indianapolis Center
12:00PM 38.7669 -85.2767 341° North 428 493 36,000 -420 Level Indianapolis Center
12:01PM 38.8797 -85.3264 341° North 429 494 35,200 -900 Descending Indianapolis Center
12:02PM 38.9911 -85.3733 342° North 425 489 34,200 -960 Descending Indianapolis Center
12:03PM 39.0997 -85.4211 341° North 417 480 33,300 -960 Descending Indianapolis Center
12:04PM 39.2106 -85.4703 341° North 422 486 32,300 -1,020 Descending Indianapolis Center
12:05PM 39.3233 -85.5186 342° North 427 491 31,300 -1,080 Descending Indianapolis Center
12:06PM 39.4600 -85.5789 341° North 434 499 30,100 -900 Descending Indianapolis Center
12:07PM 39.5747 -85.6294 341° North 438 504 29,500 -840 Descending Indianapolis Center
12:08PM 39.6864 -85.6789 341° North 432 497 28,400 -780 Descending Indianapolis Center
12:09PM 39.7947 -85.7283 341° North 422 486 28,000 -1,080 Descending Indianapolis Center
12:10PM 39.9017 -85.7758 341° North 415 478 26,300 -1,980 Descending Indianapolis Center
12:11PM 40.0272 -85.8306 342° North 404 465 24,000 -1,140 Descending Indianapolis Center
12:12PM 40.1292 -85.8775 341° North 395 455 24,000  Level Indianapolis Center
12:13PM 40.1692 -85.8986 338° Northwest 395 455 24,000  Level Chicago Center
12:14PM 40.2881 -85.9694 336° Northwest 393 452 24,000 -300 Level Chicago Center
12:15PM 40.3878 -86.0294 335° Northwest 395 455 23,400 -780 Descending Chicago Center
12:16PM 40.4853 -86.0878 336° Northwest 389 448 22,400 -1,020 Descending Chicago Center
12:17PM 40.5825 -86.1472 335° Northwest 388 447 21,400 -1,020 Descending Chicago Center
12:18PM 40.6778 -86.2067 335° Northwest 382 440 20,300 -1,980 Descending Chicago Center
12:19PM 40.7878 -86.2725 336° Northwest 369 425 17,400 -2,520 Descending Chicago Center
12:20PM 40.8744 -86.3261 335° Northwest 350 403 15,100 -2,160 Descending Chicago Center
12:21PM 40.9581 -86.3758 336° Northwest 336 387 13,000 -1,980 Descending Chicago Center
12:22PM 41.0408 -86.4283 334° Northwest 331 381 11,100 -1,260 Descending Chicago Center
12:23PM 41.1061 -86.5208 313° West 342 394 10,400 -540 Descending Chicago Center
12:24PM 41.1658 -86.6125 311° West 333 383 10,000 -300 Descending Chicago Center
12:25PM 41.2258 -86.7042 311° West 329 379 9,900 -360 Descending Chicago Center
12:26PM 41.2847 -86.7969 310° West 283 326 9,300 -960 Descending Chicago Center
12:27PM 41.3322 -86.8725 310° West 271 312 8,000 -1,260 Descending Chicago Center
12:28PM 41.3814 -86.9481 311° West 272 313 6,700 -1,020 Descending Chicago Center
12:29PM 41.4281 -87.0225 310° West 267 307 5,900 -360 Descending Chicago Center
12:30PM 41.4875 -87.1128 311° West 270 311 6,000  Climbing Chicago Center
12:31PM 41.5161 -87.2069 292° West 267 307 6,000 -360 Level Chicago Center
12:32PM 41.5236 -87.3017 276° West 266 306 5,300 -840 Descending Chicago Center
12:33PM 41.5297 -87.3936 275° West 266 306 4,300 -720 Descending Chicago Center
12:34PM 41.5411 -87.4869 279° West 261 300 3,900 -180 Descending Chicago Center
12:35PM 41.5489 -87.6006 275° West 259 298 4,000  Climbing Chicago Center
12:36PM 41.5556 -87.6956 275° West 259 298 4,000 -300 Level Chicago Center
12:37PM 41.5619 -87.7903 275° West 260 299 3,500 -540 Descending Chicago Center
12:39PM 41.5922 -87.8653 298° West 245 282 2,900 -240 Descending Chicago Center
12:40PM 41.6508 -87.9022 335° Northwest 227 261 3,000  Climbing Chicago Center
12:41PM 41.6919 -87.8706 30° Northeast 192 221 2,900 -480 Descending Chicago Center
12:42PM 41.7242 -87.8297 43° Northeast 173 199 2,100 -780 Descending Chicago Center
12:43PM 41.7511 -87.7958 43° Northeast 154 177 1,400 -540 Descending Chicago Center
12:44PM 41.7806 -87.7581 44° Northeast 143 165 1,000 -420 Descending Chicago Center